sensor_id;sensor_type;location;lat;lon;timestamp;P1;durP1;ratioP1;P2;durP2;ratioP2
60054;SDS011;45930;53.514;55.904;2023-07-16T00:00:12;32.28;;;24.92;;
60054;SDS011;45930;53.514;55.904;2023-07-16T00:01:13;33.22;;;23.30;;
60054;SDS011;45930;53.514;55.904;2023-07-16T00:02:14;35.35;;;23.90;;
60054;SDS011;45930;53.514;55.904;2023-07-16T00:03:15;31.70;;;23.05;;
60054;SDS011;45930;53.514;55.904;2023-07-16T00:04:16;33.50;;;24.33;;
60054;SDS011;45930;53.514;55.904;2023-07-16T00:05:16;32.58;;;23.25;;
60054;SDS011;45930;53.514;55.904;2023-07-16T00:06:17;32.45;;;25.20;;
60054;SDS011;45930;53.514;55.904;2023-07-16T00:07:18;31.55;;;23.92;;
60054;SDS011;45930;53.514;55.904;2023-07-16T00:08:19;35.15;;;24.48;;
60054;SDS011;45930;53.514;55.904;2023-07-16T00:09:20;36.97;;;24.00;;
60054;SDS011;45930;53.514;55.904;2023-07-16T00:10:20;32.88;;;23.65;;
60054;SDS011;45930;53.514;55.904;2023-07-16T00:11:21;33.17;;;23.67;;
60054;SDS011;45930;53.514;55.904;2023-07-16T00:12:22;30.10;;;23.15;;
60054;SDS011;45930;53.514;55.904;2023-07-16T00:13:23;28.20;;;22.42;;
60054;SDS011;45930;53.514;55.904;2023-07-16T00:14:23;32.40;;;23.48;;
60054;SDS011;45930;53.514;55.904;2023-07-16T00:15:24;30.20;;;22.67;;
60054;SDS011;45930;53.514;55.904;2023-07-16T00:16:25;37.42;;;23.48;;
60054;SDS011;45930;53.514;55.904;2023-07-16T00:17:26;34.67;;;24.73;;
60054;SDS011;45930;53.514;55.904;2023-07-16T00:18:27;39.13;;;26.70;;
60054;SDS011;45930;53.514;55.904;2023-07-16T00:19:27;37.08;;;25.40;;
60054;SDS011;45930;53.514;55.904;2023-07-16T00:20:28;33.10;;;25.83;;
60054;SDS011;45930;53.514;55.904;2023-07-16T00:21:29;35.40;;;25.70;;
60054;SDS011;45930;53.514;55.904;2023-07-16T00:22:30;39.75;;;28.00;;
60054;SDS011;45930;53.514;55.904;2023-07-16T00:23:31;38.15;;;26.90;;
60054;SDS011;45930;53.514;55.904;2023-07-16T00:24:31;38.10;;;25.95;;
60054;SDS011;45930;53.514;55.904;2023-07-16T00:25:32;33.78;;;24.83;;
60054;SDS011;45930;53.514;55.904;2023-07-16T00:26:35;36.17;;;26.02;;
60054;SDS011;45930;53.514;55.904;2023-07-16T00:27:36;35.08;;;25.75;;
60054;SDS011;45930;53.514;55.904;2023-07-16T00:28:37;35.38;;;26.10;;
60054;SDS011;45930;53.514;55.904;2023-07-16T00:29:37;34.55;;;25.40;;
60054;SDS011;45930;53.514;55.904;2023-07-16T00:30:38;33.58;;;24.05;;
60054;SDS011;45930;53.514;55.904;2023-07-16T00:31:39;30.13;;;23.73;;
60054;SDS011;45930;53.514;55.904;2023-07-16T00:32:40;30.20;;;23.45;;
60054;SDS011;45930;53.514;55.904;2023-07-16T00:33:41;33.03;;;24.63;;
60054;SDS011;45930;53.514;55.904;2023-07-16T00:34:41;35.13;;;23.20;;
60054;SDS011;45930;53.514;55.904;2023-07-16T00:35:49;31.70;;;25.08;;
60054;SDS011;45930;53.514;55.904;2023-07-16T00:36:50;34.40;;;24.65;;
60054;SDS011;45930;53.514;55.904;2023-07-16T00:37:51;36.53;;;24.58;;
60054;SDS011;45930;53.514;55.904;2023-07-16T00:38:52;31.58;;;23.88;;
60054;SDS011;45930;53.514;55.904;2023-07-16T00:39:53;37.55;;;22.50;;
60054;SDS011;45930;53.514;55.904;2023-07-16T00:40:54;31.38;;;23.77;;
60054;SDS011;45930;53.514;55.904;2023-07-16T00:41:54;33.42;;;23.38;;
60054;SDS011;45930;53.514;55.904;2023-07-16T00:42:55;37.13;;;25.25;;
60054;SDS011;45930;53.514;55.904;2023-07-16T00:43:56;30.80;;;23.25;;
60054;SDS011;45930;53.514;55.904;2023-07-16T00:44:57;34.08;;;22.90;;
60054;SDS011;45930;53.514;55.904;2023-07-16T00:45:58;33.17;;;22.70;;
60054;SDS011;45930;53.514;55.904;2023-07-16T00:46:59;29.80;;;21.58;;
60054;SDS011;45930;53.514;55.904;2023-07-16T00:48:00;29.25;;;22.98;;
60054;SDS011;45930;53.514;55.904;2023-07-16T00:49:01;30.85;;;23.48;;
60054;SDS011;45930;53.514;55.904;2023-07-16T00:50:02;30.65;;;21.67;;
60054;SDS011;45930;53.514;55.904;2023-07-16T00:51:03;34.63;;;20.75;;
60054;SDS011;45930;53.514;55.904;2023-07-16T00:52:06;27.48;;;20.63;;
60054;SDS011;45930;53.514;55.904;2023-07-16T00:53:12;31.20;;;20.98;;
60054;SDS011;45930;53.514;55.904;2023-07-16T00:54:13;28.33;;;19.77;;
60054;SDS011;45930;53.514;55.904;2023-07-16T00:55:14;30.08;;;20.40;;
60054;SDS011;45930;53.514;55.904;2023-07-16T00:56:16;26.38;;;19.10;;
60054;SDS011;45930;53.514;55.904;2023-07-16T00:57:20;27.60;;;20.33;;
60054;SDS011;45930;53.514;55.904;2023-07-16T00:58:20;30.27;;;20.35;;
60054;SDS011;45930;53.514;55.904;2023-07-16T00:59:21;29.73;;;20.90;;
60054;SDS011;45930;53.514;55.904;2023-07-16T01:00:22;30.50;;;21.30;;
60054;SDS011;45930;53.514;55.904;2023-07-16T01:01:23;32.38;;;22.40;;
60054;SDS011;45930;53.514;55.904;2023-07-16T01:02:24;33.78;;;20.73;;
60054;SDS011;45930;53.514;55.904;2023-07-16T01:03:25;27.23;;;20.67;;
60054;SDS011;45930;53.514;55.904;2023-07-16T01:04:26;29.38;;;21.70;;
60054;SDS011;45930;53.514;55.904;2023-07-16T01:05:28;27.48;;;20.80;;
60054;SDS011;45930;53.514;55.904;2023-07-16T01:06:39;30.30;;;21.23;;
60054;SDS011;45930;53.514;55.904;2023-07-16T01:07:42;29.15;;;21.08;;
60054;SDS011;45930;53.514;55.904;2023-07-16T01:09:02;31.30;;;22.48;;
60054;SDS011;45930;53.514;55.904;2023-07-16T01:10:07;29.98;;;22.90;;
60054;SDS011;45930;53.514;55.904;2023-07-16T01:11:08;33.30;;;23.05;;
60054;SDS011;45930;53.514;55.904;2023-07-16T01:12:10;32.35;;;23.13;;
60054;SDS011;45930;53.514;55.904;2023-07-16T01:13:11;33.88;;;24.27;;
60054;SDS011;45930;53.514;55.904;2023-07-16T01:14:13;42.78;;;25.77;;
60054;SDS011;45930;53.514;55.904;2023-07-16T01:15:16;35.35;;;22.98;;
60054;SDS011;45930;53.514;55.904;2023-07-16T01:16:23;35.60;;;23.40;;
60054;SDS011;45930;53.514;55.904;2023-07-16T01:17:25;36.13;;;24.90;;
60054;SDS011;45930;53.514;55.904;2023-07-16T01:18:26;35.25;;;23.88;;
60054;SDS011;45930;53.514;55.904;2023-07-16T01:19:27;33.60;;;22.73;;
60054;SDS011;45930;53.514;55.904;2023-07-16T01:20:27;31.85;;;22.85;;
60054;SDS011;45930;53.514;55.904;2023-07-16T01:21:31;26.02;;;20.35;;
60054;SDS011;45930;53.514;55.904;2023-07-16T01:28:16;25.63;;;18.90;;
60054;SDS011;45930;53.514;55.904;2023-07-16T01:29:31;28.73;;;19.17;;
60054;SDS011;45930;53.514;55.904;2023-07-16T01:30:50;26.98;;;20.23;;
60054;SDS011;45930;53.514;55.904;2023-07-16T01:31:53;27.98;;;19.23;;
60054;SDS011;45930;53.514;55.904;2023-07-16T01:32:55;24.13;;;19.17;;
60054;SDS011;45930;53.514;55.904;2023-07-16T01:33:58;28.45;;;20.20;;
60054;SDS011;45930;53.514;55.904;2023-07-16T01:34:59;34.40;;;21.13;;
60054;SDS011;45930;53.514;55.904;2023-07-16T01:36:05;35.40;;;21.50;;
60054;SDS011;45930;53.514;55.904;2023-07-16T01:37:07;26.08;;;19.38;;
60054;SDS011;45930;53.514;55.904;2023-07-16T01:38:10;30.58;;;21.23;;
60054;SDS011;45930;53.514;55.904;2023-07-16T01:39:12;25.13;;;19.40;;
60054;SDS011;45930;53.514;55.904;2023-07-16T01:40:14;26.42;;;18.35;;
60054;SDS011;45930;53.514;55.904;2023-07-16T01:41:15;27.95;;;17.33;;
60054;SDS011;45930;53.514;55.904;2023-07-16T01:42:15;25.70;;;17.13;;
60054;SDS011;45930;53.514;55.904;2023-07-16T01:43:16;25.20;;;17.70;;
60054;SDS011;45930;53.514;55.904;2023-07-16T01:44:17;25.45;;;16.85;;
60054;SDS011;45930;53.514;55.904;2023-07-16T01:45:18;21.10;;;17.75;;
60054;SDS011;45930;53.514;55.904;2023-07-16T01:46:19;25.33;;;17.45;;
60054;SDS011;45930;53.514;55.904;2023-07-16T01:47:36;22.55;;;18.33;;
60054;SDS011;45930;53.514;55.904;2023-07-16T01:48:49;24.33;;;18.42;;
60054;SDS011;45930;53.514;55.904;2023-07-16T01:49:50;27.95;;;17.38;;
60054;SDS011;45930;53.514;55.904;2023-07-16T01:50:51;26.63;;;17.90;;
60054;SDS011;45930;53.514;55.904;2023-07-16T01:51:52;27.10;;;18.15;;
60054;SDS011;45930;53.514;55.904;2023-07-16T01:52:52;28.27;;;18.73;;
60054;SDS011;45930;53.514;55.904;2023-07-16T01:53:53;24.38;;;16.92;;
60054;SDS011;45930;53.514;55.904;2023-07-16T01:54:54;26.45;;;18.02;;
60054;SDS011;45930;53.514;55.904;2023-07-16T01:55:55;24.50;;;18.02;;
60054;SDS011;45930;53.514;55.904;2023-07-16T01:56:56;22.63;;;17.02;;
60054;SDS011;45930;53.514;55.904;2023-07-16T01:57:56;25.38;;;18.15;;
60054;SDS011;45930;53.514;55.904;2023-07-16T01:58:57;24.02;;;17.80;;
60054;SDS011;45930;53.514;55.904;2023-07-16T01:59:58;20.83;;;16.52;;
60054;SDS011;45930;53.514;55.904;2023-07-16T02:00:59;21.73;;;16.88;;
60054;SDS011;45930;53.514;55.904;2023-07-16T02:01:59;23.40;;;16.48;;
60054;SDS011;45930;53.514;55.904;2023-07-16T02:03:00;23.95;;;18.48;;
60054;SDS011;45930;53.514;55.904;2023-07-16T02:04:01;22.52;;;17.55;;
60054;SDS011;45930;53.514;55.904;2023-07-16T02:05:02;22.63;;;17.75;;
60054;SDS011;45930;53.514;55.904;2023-07-16T02:06:03;23.25;;;17.45;;
60054;SDS011;45930;53.514;55.904;2023-07-16T02:07:04;23.77;;;18.85;;
60054;SDS011;45930;53.514;55.904;2023-07-16T02:08:05;22.23;;;17.48;;
60054;SDS011;45930;53.514;55.904;2023-07-16T02:09:06;23.38;;;18.67;;
60054;SDS011;45930;53.514;55.904;2023-07-16T02:10:07;22.58;;;17.83;;
60054;SDS011;45930;53.514;55.904;2023-07-16T02:11:09;26.27;;;19.52;;
60054;SDS011;45930;53.514;55.904;2023-07-16T02:12:10;27.85;;;19.65;;
60054;SDS011;45930;53.514;55.904;2023-07-16T02:13:11;24.05;;;18.23;;
60054;SDS011;45930;53.514;55.904;2023-07-16T02:14:11;23.52;;;18.52;;
60054;SDS011;45930;53.514;55.904;2023-07-16T02:15:13;22.90;;;18.20;;
60054;SDS011;45930;53.514;55.904;2023-07-16T02:16:14;24.92;;;18.50;;
60054;SDS011;45930;53.514;55.904;2023-07-16T02:17:15;26.30;;;19.98;;
60054;SDS011;45930;53.514;55.904;2023-07-16T02:18:16;22.55;;;17.40;;
60054;SDS011;45930;53.514;55.904;2023-07-16T02:19:37;20.58;;;17.20;;
60054;SDS011;45930;53.514;55.904;2023-07-16T02:20:37;25.20;;;18.63;;
60054;SDS011;45930;53.514;55.904;2023-07-16T02:21:38;29.08;;;18.80;;
60054;SDS011;45930;53.514;55.904;2023-07-16T02:22:39;27.77;;;18.55;;
60054;SDS011;45930;53.514;55.904;2023-07-16T02:23:40;24.55;;;18.90;;
60054;SDS011;45930;53.514;55.904;2023-07-16T02:24:41;21.40;;;18.20;;
60054;SDS011;45930;53.514;55.904;2023-07-16T02:25:42;24.42;;;19.05;;
60054;SDS011;45930;53.514;55.904;2023-07-16T02:26:43;23.80;;;18.08;;
60054;SDS011;45930;53.514;55.904;2023-07-16T02:27:44;23.33;;;17.90;;
60054;SDS011;45930;53.514;55.904;2023-07-16T02:28:44;22.65;;;17.63;;
60054;SDS011;45930;53.514;55.904;2023-07-16T02:29:45;23.23;;;18.05;;
60054;SDS011;45930;53.514;55.904;2023-07-16T02:30:46;22.05;;;17.02;;
60054;SDS011;45930;53.514;55.904;2023-07-16T02:31:48;21.90;;;16.92;;
60054;SDS011;45930;53.514;55.904;2023-07-16T02:32:49;26.90;;;17.77;;
60054;SDS011;45930;53.514;55.904;2023-07-16T02:33:52;25.23;;;17.30;;
60054;SDS011;45930;53.514;55.904;2023-07-16T02:34:53;22.98;;;17.05;;
60054;SDS011;45930;53.514;55.904;2023-07-16T02:35:54;23.15;;;17.27;;
60054;SDS011;45930;53.514;55.904;2023-07-16T02:36:55;21.52;;;16.83;;
60054;SDS011;45930;53.514;55.904;2023-07-16T02:37:56;21.15;;;16.13;;
60054;SDS011;45930;53.514;55.904;2023-07-16T02:38:57;26.25;;;16.95;;
60054;SDS011;45930;53.514;55.904;2023-07-16T02:39:58;22.00;;;16.70;;
60054;SDS011;45930;53.514;55.904;2023-07-16T02:40:59;25.00;;;17.23;;
60054;SDS011;45930;53.514;55.904;2023-07-16T02:42:00;23.55;;;17.90;;
60054;SDS011;45930;53.514;55.904;2023-07-16T02:43:01;28.13;;;18.40;;
60054;SDS011;45930;53.514;55.904;2023-07-16T02:44:03;21.95;;;16.65;;
60054;SDS011;45930;53.514;55.904;2023-07-16T02:45:05;19.35;;;15.48;;
60054;SDS011;45930;53.514;55.904;2023-07-16T02:46:07;22.10;;;16.58;;
60054;SDS011;45930;53.514;55.904;2023-07-16T02:47:07;18.38;;;16.00;;
60054;SDS011;45930;53.514;55.904;2023-07-16T02:48:08;25.92;;;18.05;;
60054;SDS011;45930;53.514;55.904;2023-07-16T02:49:09;20.40;;;15.90;;
60054;SDS011;45930;53.514;55.904;2023-07-16T02:50:10;24.13;;;16.63;;
60054;SDS011;45930;53.514;55.904;2023-07-16T02:51:11;23.38;;;15.68;;
60054;SDS011;45930;53.514;55.904;2023-07-16T02:52:11;23.27;;;15.68;;
60054;SDS011;45930;53.514;55.904;2023-07-16T02:53:12;24.92;;;16.58;;
60054;SDS011;45930;53.514;55.904;2023-07-16T02:54:13;24.75;;;16.98;;
60054;SDS011;45930;53.514;55.904;2023-07-16T02:55:14;24.38;;;16.23;;
60054;SDS011;45930;53.514;55.904;2023-07-16T02:56:14;23.83;;;18.15;;
60054;SDS011;45930;53.514;55.904;2023-07-16T02:57:16;24.60;;;17.30;;
60054;SDS011;45930;53.514;55.904;2023-07-16T02:58:17;24.08;;;17.77;;
60054;SDS011;45930;53.514;55.904;2023-07-16T02:59:18;21.90;;;17.35;;
60054;SDS011;45930;53.514;55.904;2023-07-16T03:00:19;21.85;;;16.08;;
60054;SDS011;45930;53.514;55.904;2023-07-16T03:01:20;18.23;;;16.10;;
60054;SDS011;45930;53.514;55.904;2023-07-16T03:02:21;20.15;;;15.18;;
60054;SDS011;45930;53.514;55.904;2023-07-16T03:03:22;20.50;;;15.60;;
60054;SDS011;45930;53.514;55.904;2023-07-16T03:04:22;20.23;;;15.07;;
60054;SDS011;45930;53.514;55.904;2023-07-16T03:05:23;23.38;;;16.52;;
60054;SDS011;45930;53.514;55.904;2023-07-16T03:06:24;25.65;;;17.42;;
60054;SDS011;45930;53.514;55.904;2023-07-16T03:07:25;19.92;;;14.15;;
60054;SDS011;45930;53.514;55.904;2023-07-16T03:08:26;21.00;;;15.13;;
60054;SDS011;45930;53.514;55.904;2023-07-16T03:09:30;16.50;;;13.48;;
60054;SDS011;45930;53.514;55.904;2023-07-16T03:10:31;18.60;;;13.73;;
60054;SDS011;45930;53.514;55.904;2023-07-16T03:11:32;16.63;;;13.27;;
60054;SDS011;45930;53.514;55.904;2023-07-16T03:12:32;16.95;;;14.55;;
60054;SDS011;45930;53.514;55.904;2023-07-16T03:13:33;25.00;;;17.15;;
60054;SDS011;45930;53.514;55.904;2023-07-16T03:14:34;21.75;;;15.88;;
60054;SDS011;45930;53.514;55.904;2023-07-16T03:15:34;20.60;;;15.20;;
60054;SDS011;45930;53.514;55.904;2023-07-16T03:16:35;20.70;;;15.30;;
60054;SDS011;45930;53.514;55.904;2023-07-16T03:17:36;19.08;;;13.95;;
60054;SDS011;45930;53.514;55.904;2023-07-16T03:18:37;20.42;;;14.95;;
60054;SDS011;45930;53.514;55.904;2023-07-16T03:19:37;21.25;;;15.13;;
60054;SDS011;45930;53.514;55.904;2023-07-16T03:20:38;19.50;;;15.07;;
60054;SDS011;45930;53.514;55.904;2023-07-16T03:21:39;19.58;;;15.43;;
60054;SDS011;45930;53.514;55.904;2023-07-16T03:22:40;21.70;;;15.60;;
60054;SDS011;45930;53.514;55.904;2023-07-16T03:23:41;18.50;;;15.52;;
60054;SDS011;45930;53.514;55.904;2023-07-16T03:24:41;20.65;;;15.20;;
60054;SDS011;45930;53.514;55.904;2023-07-16T03:25:42;22.80;;;16.25;;
60054;SDS011;45930;53.514;55.904;2023-07-16T03:26:43;22.73;;;15.05;;
60054;SDS011;45930;53.514;55.904;2023-07-16T03:27:44;18.30;;;14.85;;
60054;SDS011;45930;53.514;55.904;2023-07-16T03:28:45;21.42;;;14.98;;
60054;SDS011;45930;53.514;55.904;2023-07-16T03:29:45;22.15;;;15.63;;
60054;SDS011;45930;53.514;55.904;2023-07-16T03:30:47;16.58;;;14.88;;
60054;SDS011;45930;53.514;55.904;2023-07-16T03:31:49;19.50;;;14.13;;
60054;SDS011;45930;53.514;55.904;2023-07-16T03:32:50;20.05;;;14.50;;
60054;SDS011;45930;53.514;55.904;2023-07-16T03:33:50;15.32;;;13.73;;
60054;SDS011;45930;53.514;55.904;2023-07-16T03:34:51;25.70;;;14.93;;
60054;SDS011;45930;53.514;55.904;2023-07-16T03:35:52;20.50;;;14.68;;
60054;SDS011;45930;53.514;55.904;2023-07-16T03:36:53;17.98;;;13.55;;
60054;SDS011;45930;53.514;55.904;2023-07-16T03:37:54;19.13;;;14.40;;
60054;SDS011;45930;53.514;55.904;2023-07-16T03:38:54;17.27;;;14.93;;
60054;SDS011;45930;53.514;55.904;2023-07-16T03:39:55;19.73;;;15.20;;
60054;SDS011;45930;53.514;55.904;2023-07-16T03:40:56;17.17;;;13.82;;
60054;SDS011;45930;53.514;55.904;2023-07-16T03:41:57;19.00;;;15.80;;
60054;SDS011;45930;53.514;55.904;2023-07-16T03:42:57;18.05;;;14.25;;
60054;SDS011;45930;53.514;55.904;2023-07-16T03:43:58;18.02;;;14.68;;
60054;SDS011;45930;53.514;55.904;2023-07-16T03:44:59;18.77;;;13.90;;
60054;SDS011;45930;53.514;55.904;2023-07-16T03:46:00;16.13;;;13.55;;
60054;SDS011;45930;53.514;55.904;2023-07-16T03:47:00;15.68;;;13.13;;
60054;SDS011;45930;53.514;55.904;2023-07-16T03:48:02;15.32;;;13.02;;
60054;SDS011;45930;53.514;55.904;2023-07-16T03:49:06;15.73;;;13.07;;
60054;SDS011;45930;53.514;55.904;2023-07-16T03:50:07;15.95;;;13.65;;
60054;SDS011;45930;53.514;55.904;2023-07-16T03:51:09;15.57;;;13.02;;
60054;SDS011;45930;53.514;55.904;2023-07-16T03:52:09;14.07;;;12.50;;
60054;SDS011;45930;53.514;55.904;2023-07-16T03:53:10;15.43;;;13.07;;
60054;SDS011;45930;53.514;55.904;2023-07-16T03:54:11;14.55;;;12.27;;
60054;SDS011;45930;53.514;55.904;2023-07-16T03:55:12;13.07;;;11.77;;
60054;SDS011;45930;53.514;55.904;2023-07-16T03:56:12;16.75;;;11.73;;
60054;SDS011;45930;53.514;55.904;2023-07-16T03:57:13;15.18;;;11.60;;
60054;SDS011;45930;53.514;55.904;2023-07-16T03:58:14;12.98;;;11.68;;
60054;SDS011;45930;53.514;55.904;2023-07-16T03:59:15;15.90;;;11.50;;
60054;SDS011;45930;53.514;55.904;2023-07-16T04:00:16;15.27;;;13.05;;
60054;SDS011;45930;53.514;55.904;2023-07-16T04:01:16;15.20;;;12.85;;
60054;SDS011;45930;53.514;55.904;2023-07-16T04:02:17;14.48;;;12.98;;
60054;SDS011;45930;53.514;55.904;2023-07-16T04:03:18;14.52;;;13.00;;
60054;SDS011;45930;53.514;55.904;2023-07-16T04:04:19;21.17;;;14.15;;
60054;SDS011;45930;53.514;55.904;2023-07-16T04:05:20;15.70;;;14.07;;
60054;SDS011;45930;53.514;55.904;2023-07-16T04:06:21;16.20;;;14.07;;
60054;SDS011;45930;53.514;55.904;2023-07-16T04:07:21;20.25;;;13.98;;
60054;SDS011;45930;53.514;55.904;2023-07-16T04:08:22;15.48;;;12.98;;
60054;SDS011;45930;53.514;55.904;2023-07-16T04:09:23;15.85;;;12.40;;
60054;SDS011;45930;53.514;55.904;2023-07-16T04:10:24;16.45;;;13.55;;
60054;SDS011;45930;53.514;55.904;2023-07-16T04:11:24;17.25;;;13.38;;
60054;SDS011;45930;53.514;55.904;2023-07-16T04:12:25;14.13;;;12.40;;
60054;SDS011;45930;53.514;55.904;2023-07-16T04:13:26;18.55;;;13.45;;
60054;SDS011;45930;53.514;55.904;2023-07-16T04:14:27;13.95;;;12.50;;
60054;SDS011;45930;53.514;55.904;2023-07-16T04:15:28;15.13;;;13.65;;
60054;SDS011;45930;53.514;55.904;2023-07-16T04:16:29;16.08;;;13.23;;
60054;SDS011;45930;53.514;55.904;2023-07-16T04:17:29;17.05;;;13.50;;
60054;SDS011;45930;53.514;55.904;2023-07-16T04:18:30;16.60;;;13.15;;
60054;SDS011;45930;53.514;55.904;2023-07-16T04:19:31;15.93;;;13.18;;
60054;SDS011;45930;53.514;55.904;2023-07-16T04:20:32;14.13;;;11.65;;
60054;SDS011;45930;53.514;55.904;2023-07-16T04:21:34;17.98;;;12.07;;
60054;SDS011;45930;53.514;55.904;2023-07-16T04:22:35;14.50;;;12.60;;
60054;SDS011;45930;53.514;55.904;2023-07-16T04:23:36;14.98;;;13.35;;
60054;SDS011;45930;53.514;55.904;2023-07-16T04:24:37;15.55;;;13.35;;
60054;SDS011;45930;53.514;55.904;2023-07-16T04:25:37;14.88;;;13.30;;
60054;SDS011;45930;53.514;55.904;2023-07-16T04:26:38;17.80;;;12.13;;
60054;SDS011;45930;53.514;55.904;2023-07-16T04:27:39;15.10;;;13.23;;
60054;SDS011;45930;53.514;55.904;2023-07-16T04:28:42;14.10;;;12.60;;
60054;SDS011;45930;53.514;55.904;2023-07-16T04:29:42;16.63;;;12.35;;
60054;SDS011;45930;53.514;55.904;2023-07-16T04:30:43;16.95;;;13.77;;
60054;SDS011;45930;53.514;55.904;2023-07-16T04:31:44;14.60;;;13.10;;
60054;SDS011;45930;53.514;55.904;2023-07-16T04:32:45;14.40;;;12.68;;
60054;SDS011;45930;53.514;55.904;2023-07-16T04:33:46;16.38;;;13.82;;
60054;SDS011;45930;53.514;55.904;2023-07-16T04:34:46;15.82;;;13.13;;
60054;SDS011;45930;53.514;55.904;2023-07-16T04:35:47;14.50;;;12.55;;
60054;SDS011;45930;53.514;55.904;2023-07-16T04:36:49;16.48;;;13.73;;
60054;SDS011;45930;53.514;55.904;2023-07-16T04:37:49;16.17;;;13.02;;
60054;SDS011;45930;53.514;55.904;2023-07-16T04:38:50;17.42;;;13.20;;
60054;SDS011;45930;53.514;55.904;2023-07-16T04:39:51;15.27;;;13.27;;
60054;SDS011;45930;53.514;55.904;2023-07-16T04:40:52;14.25;;;12.75;;
60054;SDS011;45930;53.514;55.904;2023-07-16T04:41:52;15.73;;;12.45;;
60054;SDS011;45930;53.514;55.904;2023-07-16T04:42:53;16.52;;;12.93;;
60054;SDS011;45930;53.514;55.904;2023-07-16T04:43:54;17.02;;;12.20;;
60054;SDS011;45930;53.514;55.904;2023-07-16T04:44:55;15.85;;;12.02;;
60054;SDS011;45930;53.514;55.904;2023-07-16T04:45:55;13.43;;;11.60;;
60054;SDS011;45930;53.514;55.904;2023-07-16T04:46:56;13.73;;;12.32;;
60054;SDS011;45930;53.514;55.904;2023-07-16T04:47:57;13.52;;;12.05;;
60054;SDS011;45930;53.514;55.904;2023-07-16T04:48:59;16.08;;;12.60;;
60054;SDS011;45930;53.514;55.904;2023-07-16T04:50:01;13.98;;;11.68;;
60054;SDS011;45930;53.514;55.904;2023-07-16T04:51:04;17.80;;;12.25;;
60054;SDS011;45930;53.514;55.904;2023-07-16T04:52:05;14.90;;;13.15;;
60054;SDS011;45930;53.514;55.904;2023-07-16T04:53:06;14.30;;;12.00;;
60054;SDS011;45930;53.514;55.904;2023-07-16T04:54:07;13.90;;;11.90;;
60054;SDS011;45930;53.514;55.904;2023-07-16T04:55:08;12.50;;;11.20;;
60054;SDS011;45930;53.514;55.904;2023-07-16T04:56:12;13.18;;;11.82;;
60054;SDS011;45930;53.514;55.904;2023-07-16T04:57:13;14.38;;;11.38;;
60054;SDS011;45930;53.514;55.904;2023-07-16T04:58:14;14.20;;;10.88;;
60054;SDS011;45930;53.514;55.904;2023-07-16T04:59:15;13.45;;;11.35;;
60054;SDS011;45930;53.514;55.904;2023-07-16T05:00:16;17.67;;;11.40;;
60054;SDS011;45930;53.514;55.904;2023-07-16T05:01:16;14.75;;;11.90;;
60054;SDS011;45930;53.514;55.904;2023-07-16T05:02:17;15.70;;;11.98;;
60054;SDS011;45930;53.514;55.904;2023-07-16T05:03:18;15.27;;;12.45;;
60054;SDS011;45930;53.514;55.904;2023-07-16T05:04:19;16.63;;;13.00;;
60054;SDS011;45930;53.514;55.904;2023-07-16T05:05:20;17.92;;;13.90;;
60054;SDS011;45930;53.514;55.904;2023-07-16T05:06:20;15.40;;;12.55;;
60054;SDS011;45930;53.514;55.904;2023-07-16T05:07:21;17.05;;;14.43;;
60054;SDS011;45930;53.514;55.904;2023-07-16T05:08:22;14.90;;;13.30;;
60054;SDS011;45930;53.514;55.904;2023-07-16T05:09:23;17.30;;;13.07;;
60054;SDS011;45930;53.514;55.904;2023-07-16T05:10:23;20.70;;;13.73;;
60054;SDS011;45930;53.514;55.904;2023-07-16T05:11:24;16.77;;;13.05;;
60054;SDS011;45930;53.514;55.904;2023-07-16T05:12:26;13.82;;;12.43;;
60054;SDS011;45930;53.514;55.904;2023-07-16T05:13:27;15.23;;;13.25;;
60054;SDS011;45930;53.514;55.904;2023-07-16T05:14:28;14.30;;;11.90;;
60054;SDS011;45930;53.514;55.904;2023-07-16T05:15:31;14.55;;;11.10;;
60054;SDS011;45930;53.514;55.904;2023-07-16T05:16:32;13.48;;;10.65;;
60054;SDS011;45930;53.514;55.904;2023-07-16T05:17:33;14.50;;;12.15;;
60054;SDS011;45930;53.514;55.904;2023-07-16T05:18:34;14.75;;;12.20;;
60054;SDS011;45930;53.514;55.904;2023-07-16T05:19:35;15.57;;;12.35;;
60054;SDS011;45930;53.514;55.904;2023-07-16T05:20:36;16.67;;;10.40;;
60054;SDS011;45930;53.514;55.904;2023-07-16T05:21:37;13.00;;;11.15;;
60054;SDS011;45930;53.514;55.904;2023-07-16T05:22:38;14.80;;;10.95;;
60054;SDS011;45930;53.514;55.904;2023-07-16T05:23:39;12.40;;;10.90;;
60054;SDS011;45930;53.514;55.904;2023-07-16T05:24:40;11.65;;;10.45;;
60054;SDS011;45930;53.514;55.904;2023-07-16T05:25:47;13.73;;;11.00;;
60054;SDS011;45930;53.514;55.904;2023-07-16T05:26:48;14.00;;;12.45;;
60054;SDS011;45930;53.514;55.904;2023-07-16T05:27:50;14.18;;;12.07;;
60054;SDS011;45930;53.514;55.904;2023-07-16T05:28:51;16.65;;;12.75;;
60054;SDS011;45930;53.514;55.904;2023-07-16T05:29:52;21.00;;;12.00;;
60054;SDS011;45930;53.514;55.904;2023-07-16T05:31:02;15.95;;;12.57;;
60054;SDS011;45930;53.514;55.904;2023-07-16T05:32:03;14.07;;;12.60;;
60054;SDS011;45930;53.514;55.904;2023-07-16T05:33:04;17.48;;;13.15;;
60054;SDS011;45930;53.514;55.904;2023-07-16T05:34:05;16.67;;;12.95;;
60054;SDS011;45930;53.514;55.904;2023-07-16T05:35:06;25.33;;;12.75;;
60054;SDS011;45930;53.514;55.904;2023-07-16T05:36:07;19.08;;;12.52;;
60054;SDS011;45930;53.514;55.904;2023-07-16T05:37:08;16.92;;;12.55;;
60054;SDS011;45930;53.514;55.904;2023-07-16T05:38:09;18.83;;;13.93;;
60054;SDS011;45930;53.514;55.904;2023-07-16T05:39:09;14.25;;;12.32;;
60054;SDS011;45930;53.514;55.904;2023-07-16T05:40:12;20.10;;;14.70;;
60054;SDS011;45930;53.514;55.904;2023-07-16T05:41:13;15.10;;;12.13;;
60054;SDS011;45930;53.514;55.904;2023-07-16T05:42:14;23.50;;;14.60;;
60054;SDS011;45930;53.514;55.904;2023-07-16T05:43:15;17.70;;;14.50;;
60054;SDS011;45930;53.514;55.904;2023-07-16T05:44:16;24.38;;;14.32;;
60054;SDS011;45930;53.514;55.904;2023-07-16T05:45:17;16.80;;;14.50;;
60054;SDS011;45930;53.514;55.904;2023-07-16T05:46:18;19.65;;;13.80;;
60054;SDS011;45930;53.514;55.904;2023-07-16T05:47:18;18.13;;;13.57;;
60054;SDS011;45930;53.514;55.904;2023-07-16T05:48:19;15.52;;;12.25;;
60054;SDS011;45930;53.514;55.904;2023-07-16T05:49:20;20.55;;;14.60;;
60054;SDS011;45930;53.514;55.904;2023-07-16T05:50:21;21.67;;;15.02;;
60054;SDS011;45930;53.514;55.904;2023-07-16T05:51:22;19.13;;;14.40;;
60054;SDS011;45930;53.514;55.904;2023-07-16T05:52:22;21.63;;;16.48;;
60054;SDS011;45930;53.514;55.904;2023-07-16T05:53:23;25.02;;;17.80;;
60054;SDS011;45930;53.514;55.904;2023-07-16T05:54:24;24.75;;;18.52;;
60054;SDS011;45930;53.514;55.904;2023-07-16T05:55:25;26.98;;;19.17;;
60054;SDS011;45930;53.514;55.904;2023-07-16T05:56:26;26.10;;;18.00;;
60054;SDS011;45930;53.514;55.904;2023-07-16T05:57:26;21.58;;;16.77;;
60054;SDS011;45930;53.514;55.904;2023-07-16T05:58:27;22.48;;;16.67;;
60054;SDS011;45930;53.514;55.904;2023-07-16T05:59:28;22.90;;;18.15;;